Time;durP1;ratioP1;P1;durP2;ratioP2;P2;SDS_P1;SDS_P2;PMS_P1;PMS_P2;Temp;Humidity;BMP_temperature;BMP_pressure;BME280_temperature;BME280_humidity;BME280_pressure;Samples;Min_cycle;Max_cycle;Signal;HPM_P1;HPM_P2
2022/07/28 00:00:40;;;;;;;3.90;1.20;;;11.70;99.90;;;;;;5071160;28;20043;-72
2022/07/28 00:03:05;;;;;;;2.03;1.38;;;11.60;99.90;;;;;;5069504;28;20052;-73
2022/07/28 00:05:31;;;;;;;1.00;1.00;;;11.70;99.90;;;;;;5061472;28;20054;-74
2022/07/28 00:07:57;;;;;;;1.00;0.98;;;11.60;99.90;;;;;;5074005;28;20384;-73
2022/07/28 00:10:22;;;;;;;1.33;1.20;;;11.70;99.90;;;;;;5071823;28;20052;-74
2022/07/28 00:12:48;;;;;;;2.95;1.38;;;11.60;99.90;;;;;;5073612;28;20055;-73
2022/07/28 00:15:14;;;;;;;1.08;1.00;;;11.60;99.90;;;;;;5076800;28;20044;-72
2022/07/28 00:17:39;;;;;;;1.50;1.40;;;11.60;99.90;;;;;;5071869;28;20555;-74
2022/07/28 00:20:06;;;;;;;4.75;1.70;;;11.60;99.90;;;;;;5072299;28;20039;-73
2022/07/28 00:22:32;;;;;;;1.25;1.13;;;11.60;99.90;;;;;;5072694;28;20507;-73
2022/07/28 00:24:57;;;;;;;2.90;1.30;;;11.60;99.90;;;;;;5071810;28;20059;-72
2022/07/28 00:27:23;;;;;;;3.45;1.60;;;11.70;99.90;;;;;;5069176;28;20052;-74
2022/07/28 00:29:49;;;;;;;3.22;1.55;;;11.70;99.90;;;;;;5071082;28;20062;-73
2022/07/28 00:32:15;;;;;;;1.70;1.42;;;11.60;99.90;;;;;;5072857;28;20054;-72
2022/07/28 00:34:42;;;;;;;3.33;1.35;;;11.70;99.90;;;;;;5071718;28;20044;-72
2022/07/28 00:37:07;;;;;;;1.40;1.30;;;11.60;99.90;;;;;;5090600;28;20059;-72
2022/07/28 00:39:33;;;;;;;5.15;1.60;;;11.60;99.90;;;;;;5071356;28;20044;-73
2022/07/28 00:41:59;;;;;;;1.52;1.30;;;11.50;99.90;;;;;;5070850;28;20058;-72
2022/07/28 00:44:24;;;;;;;1.60;1.50;;;11.50;99.90;;;;;;5070418;28;20044;-72
2022/07/28 00:46:50;;;;;;;3.17;1.90;;;12.50;99.90;;;;;;5071506;28;20079;-72
2022/07/28 00:49:16;;;;;;;5.43;1.55;;;11.50;99.90;;;;;;5070457;28;20513;-74
2022/07/28 00:51:42;;;;;;;2.17;1.33;;;11.40;99.90;;;;;;5077811;28;20052;-74
2022/07/28 00:54:08;;;;;;;1.30;1.20;;;11.40;99.90;;;;;;5076647;28;20503;-74
2022/07/28 00:56:34;;;;;;;2.42;1.30;;;11.30;99.90;;;;;;5075879;28;20044;-73
2022/07/28 00:59:00;;;;;;;3.63;1.40;;;11.30;99.90;;;;;;5078340;28;20048;-73
2022/07/28 01:01:26;;;;;;;1.77;1.35;;;11.30;99.90;;;;;;5071178;28;20881;-73
2022/07/28 01:03:58;;;;;;;1.25;1.05;;;11.30;99.90;;;;;;5077390;28;20158;-72
2022/07/28 01:06:53;;;;;;;2.20;1.60;;;11.40;99.90;;;;;;5077990;28;20044;-73
2022/07/28 01:09:45;;;;;;;2.15;1.83;;;11.30;99.90;;;;;;5078226;28;20101;-73
2022/07/28 01:12:29;;;;;;;1.70;1.10;;;11.30;99.90;;;;;;5075406;28;20078;-72
2022/07/28 01:15:16;;;;;;;1.40;1.30;;;11.30;99.90;;;;;;5077635;28;20048;-72
2022/07/28 01:17:57;;;;;;;2.72;1.42;;;11.30;99.90;;;;;;5059867;28;20494;-71
2022/07/28 01:20:46;;;;;;;1.02;0.95;;;11.30;99.90;;;;;;5075303;28;20048;-72
2022/07/28 01:23:18;;;;;;;3.20;0.90;;;11.30;99.90;;;;;;5073809;28;20060;-73
2022/07/28 01:25:53;;;;;;;1.40;1.30;;;11.30;99.90;;;;;;5074927;28;20669;-72
2022/07/28 01:28:56;;;;;;;1.05;0.93;;;11.40;99.90;;;;;;5077267;28;20285;-73
2022/07/28 01:31:25;;;;;;;2.30;1.38;;;11.30;99.90;;;;;;5077990;28;20056;-73
2022/07/28 01:33:56;;;;;;;1.15;1.02;;;11.40;99.90;;;;;;5078591;28;20773;-72
2022/07/28 01:36:30;;;;;;;2.45;1.30;;;11.30;99.90;;;;;;5076671;28;20047;-73
2022/07/28 01:38:58;;;;;;;2.25;1.38;;;11.30;99.90;;;;;;5077055;28;20508;-72
2022/07/28 01:41:28;;;;;;;1.75;1.63;;;11.40;99.90;;;;;;5077921;28;20606;-72
2022/07/28 01:44:01;;;;;;;2.00;1.45;;;11.40;99.90;;;;;;5076412;28;20967;-72
2022/07/28 01:46:28;;;;;;;2.17;1.35;;;11.40;99.90;;;;;;5077548;28;20048;-73
2022/07/28 01:48:55;;;;;;;2.13;1.23;;;11.40;99.90;;;;;;5074258;28;20055;-73
2022/07/28 01:51:23;;;;;;;1.98;1.10;;;11.40;99.90;;;;;;5076993;28;20766;-71
2022/07/28 01:53:53;;;;;;;1.13;1.02;;;11.50;99.90;;;;;;5077074;28;20048;-73
2022/07/28 01:56:20;;;;;;;1.40;1.17;;;11.50;99.90;;;;;;5075156;28;20079;-74
2022/07/28 01:58:47;;;;;;;1.40;1.10;;;11.50;99.90;;;;;;5076564;28;20040;-73
2022/07/28 02:01:15;;;;;;;1.80;1.30;;;11.50;99.90;;;;;;5073722;28;20040;-73
2022/07/28 02:03:42;;;;;;;1.23;0.98;;;11.50;99.90;;;;;;5075879;28;20069;-74
2022/07/28 02:06:09;;;;;;;1.70;1.10;;;11.40;99.90;;;;;;5075051;28;20129;-74
2022/07/28 02:08:38;;;;;;;2.53;1.20;;;11.40;99.90;;;;;;5075928;28;20044;-72
2022/07/28 02:13:50;;;;;;;6.93;1.80;;;11.50;99.90;;;;;;5073369;28;20051;-73
2022/07/28 02:16:21;;;;;;;2.53;1.40;;;11.40;99.90;;;;;;5075058;28;20732;-74
2022/07/28 02:18:48;;;;;;;1.23;1.13;;;11.40;99.90;;;;;;5076227;28;20044;-72
2022/07/28 02:21:15;;;;;;;1.80;1.42;;;11.40;99.90;;;;;;5075199;28;20040;-73
2022/07/28 02:23:44;;;;;;;1.30;1.20;;;11.40;99.90;;;;;;5075842;28;20047;-73
2022/07/28 02:26:12;;;;;;;1.27;1.17;;;11.40;99.90;;;;;;5075537;28;20075;-73
2022/07/28 02:28:42;;;;;;;1.75;1.42;;;11.30;99.90;;;;;;5074958;28;20048;-73
2022/07/28 02:31:30;;;;;;;1.38;1.13;;;11.30;99.90;;;;;;5075542;28;20061;-73
2022/07/28 02:33:59;;;;;;;5.30;1.40;;;11.00;99.90;;;;;;5073378;28;20127;-73
2022/07/28 02:36:30;;;;;;;1.38;1.27;;;11.80;99.90;;;;;;5072193;28;20044;-73
2022/07/28 02:39:04;;;;;;;1.63;1.17;;;11.10;99.90;;;;;;5071495;28;20403;-73
2022/07/28 02:41:35;;;;;;;1.42;1.30;;;11.20;99.90;;;;;;5073543;28;20044;-74
2022/07/28 02:44:06;;;;;;;1.40;0.95;;;11.30;99.90;;;;;;5073117;28;20537;-73
2022/07/28 02:46:41;;;;;;;2.03;1.13;;;11.40;99.90;;;;;;5075087;28;20048;-73
2022/07/28 02:49:14;;;;;;;2.83;1.20;;;11.10;99.90;;;;;;5075847;28;20075;-73
2022/07/28 02:51:42;;;;;;;3.80;1.27;;;11.00;99.90;;;;;;5076202;28;20845;-73
2022/07/28 02:54:09;;;;;;;1.60;1.50;;;10.60;99.90;;;;;;5074391;28;20055;-73
2022/07/28 02:56:35;;;;;;;1.27;1.10;;;;;;;;;;5073782;28;20040;-73
2022/07/28 02:59:02;;;;;;;4.75;1.20;;;11.10;99.90;;;;;;5074634;28;20048;-73
2022/07/28 03:01:29;;;;;;;1.00;1.00;;;10.70;99.90;;;;;;5072382;28;20059;-74
2022/07/28 03:03:56;;;;;;;1.83;1.05;;;;;;;;;;5073541;28;20036;-72
2022/07/28 03:06:22;;;;;;;1.67;1.48;;;;;;;;;;5076698;28;20672;-74
2022/07/28 03:08:49;;;;;;;1.58;1.25;;;10.60;99.90;;;;;;5073425;28;20059;-73
2022/07/28 03:11:15;;;;;;;1.33;1.13;;;;;;;;;;5074895;28;20048;-72
2022/07/28 03:13:41;;;;;;;3.75;1.45;;;;;;;;;;5076564;28;20048;-73
2022/07/28 03:16:07;;;;;;;3.03;1.20;;;;;;;;;;5075076;28;20090;-73
2022/07/28 03:18:34;;;;;;;0.90;0.85;;;;;;;;;;5075364;28;20305;-74
2022/07/28 03:21:00;;;;;;;2.45;1.77;;;;;;;;;;5076199;28;20084;-73
2022/07/28 03:23:33;;;;;;;1.83;0.85;;;12.80;99.90;;;;;;5076137;28;20040;-74
2022/07/28 03:26:04;;;;;;;1.30;1.10;;;10.60;99.90;;;;;;5075855;28;20113;-73
2022/07/28 03:28:31;;;;;;;1.02;0.85;;;10.60;99.90;;;;;;5076736;28;20118;-74
2022/07/28 03:31:02;;;;;;;0.95;0.93;;;10.70;99.90;;;;;;5076549;28;20065;-73
2022/07/28 03:33:28;;;;;;;2.88;2.35;;;;;;;;;;5076715;28;20040;-73
2022/07/28 03:35:57;;;;;;;1.25;1.10;;;10.70;99.90;;;;;;5074924;28;20059;-73
2022/07/28 03:38:28;;;;;;;1.58;1.00;;;10.70;99.90;;;;;;5076186;28;20044;-73
2022/07/28 03:40:55;;;;;;;1.13;1.02;;;10.70;99.90;;;;;;5074888;28;20040;-73
2022/07/28 03:43:23;;;;;;;3.80;1.20;;;10.70;99.90;;;;;;5075595;28;20052;-73
2022/07/28 03:45:50;;;;;;;1.40;1.30;;;10.70;99.90;;;;;;5075929;28;20051;-74
2022/07/28 03:48:16;;;;;;;1.15;1.05;;;10.70;99.90;;;;;;5076164;28;20050;-73
2022/07/28 03:50:42;;;;;;;1.42;1.33;;;10.70;99.90;;;;;;5071469;28;20058;-73
2022/07/28 03:53:20;;;;;;;1.77;1.35;;;10.70;99.90;;;;;;5075821;28;20043;-72
2022/07/28 03:55:49;;;;;;;2.05;1.23;;;10.70;99.90;;;;;;5074343;28;20051;-73
2022/07/28 03:58:20;;;;;;;2.75;1.55;;;10.70;99.90;;;;;;5068658;28;20044;-73
2022/07/28 04:00:46;;;;;;;1.30;1.20;;;10.70;99.90;;;;;;5073187;28;20047;-73
2022/07/28 04:03:12;;;;;;;1.02;0.95;;;10.80;99.90;;;;;;5075450;28;20146;-73
2022/07/28 04:05:38;;;;;;;2.25;1.15;;;10.90;99.90;;;;;;5074659;28;20143;-73
2022/07/28 04:08:04;;;;;;;2.78;1.42;;;10.90;99.90;;;;;;5074653;28;20159;-73
2022/07/28 04:10:30;;;;;;;1.13;1.00;;;10.90;99.90;;;;;;5075303;28;20040;-74
2022/07/28 04:12:57;;;;;;;2.55;1.77;;;11.00;99.90;;;;;;5074311;28;20123;-73
2022/07/28 04:15:24;;;;;;;2.05;1.00;;;11.00;99.90;;;;;;5074549;28;20059;-74
2022/07/28 04:17:52;;;;;;;1.52;1.15;;;11.00;99.90;;;;;;5074029;28;20579;-73
2022/07/28 04:20:19;;;;;;;2.00;1.63;;;11.10;99.90;;;;;;5075291;28;20664;-73
2022/07/28 04:22:46;;;;;;;1.42;1.00;;;11.10;99.90;;;;;;5073618;28;20840;-74
2022/07/28 04:25:13;;;;;;;1.90;1.33;;;11.10;99.90;;;;;;5073232;28;20048;-73
2022/07/28 04:27:40;;;;;;;1.70;1.30;;;11.20;99.90;;;;;;5074304;28;20052;-73
2022/07/28 04:30:12;;;;;;;2.25;1.40;;;11.30;99.90;;;;;;5074487;28;20048;-73
2022/07/28 04:32:40;;;;;;;5.60;1.63;;;11.30;99.90;;;;;;5075415;28;20044;-73
2022/07/28 04:35:08;;;;;;;1.52;1.42;;;11.40;99.90;;;;;;5073149;28;20474;-74
2022/07/28 04:37:34;;;;;;;2.45;1.17;;;11.50;99.90;;;;;;5076261;28;20041;-73
2022/07/28 04:40:00;;;;;;;3.17;1.83;;;11.60;99.90;;;;;;5074173;28;20112;-73
2022/07/28 04:42:26;;;;;;;6.80;1.60;;;11.70;99.90;;;;;;5075334;28;20044;-74
2022/07/28 04:44:52;;;;;;;2.72;1.48;;;11.70;99.90;;;;;;5074532;28;20059;-74
2022/07/28 04:47:17;;;;;;;3.42;1.48;;;11.70;99.90;;;;;;5072883;28;20056;-73
2022/07/28 04:49:43;;;;;;;2.15;1.10;;;11.70;99.90;;;;;;5074740;28;20044;-74
2022/07/28 04:52:09;;;;;;;1.55;1.35;;;11.80;99.90;;;;;;5074268;28;20051;-73
2022/07/28 04:54:35;;;;;;;1.88;1.13;;;11.80;99.90;;;;;;5072991;28;20101;-73
2022/07/28 04:57:02;;;;;;;2.00;0.93;;;11.80;99.90;;;;;;5073549;28;20353;-74
2022/07/28 04:59:28;;;;;;;1.20;1.10;;;11.90;99.90;;;;;;5072837;28;20575;-74
2022/07/28 05:01:56;;;;;;;2.78;1.42;;;11.90;99.90;;;;;;5069744;28;20101;-73
2022/07/28 05:04:22;;;;;;;1.20;1.10;;;12.00;99.90;;;;;;5068659;28;20170;-72
2022/07/28 05:06:47;;;;;;;3.20;1.00;;;12.00;99.90;;;;;;5070070;28;20048;-73
2022/07/28 05:09:13;;;;;;;1.50;1.40;;;12.10;99.90;;;;;;5070930;28;20051;-72
2022/07/28 05:11:39;;;;;;;1.40;1.30;;;12.10;99.90;;;;;;5070086;28;20986;-73
2022/07/28 05:14:05;;;;;;;3.47;1.25;;;12.20;99.90;;;;;;5097251;27;20106;-72
2022/07/28 05:16:31;;;;;;;1.35;1.13;;;12.30;99.90;;;;;;5069410;28;20083;-73
2022/07/28 05:18:56;;;;;;;1.85;1.33;;;12.40;99.90;;;;;;5069616;28;20725;-73
2022/07/28 05:21:22;;;;;;;2.10;1.52;;;12.40;99.90;;;;;;5068932;28;20172;-73
2022/07/28 05:23:48;;;;;;;2.42;1.38;;;12.50;99.90;;;;;;5068861;28;20047;-73
2022/07/28 05:26:14;;;;;;;3.50;1.60;;;12.50;99.90;;;;;;5069213;28;20056;-72
2022/07/28 05:28:40;;;;;;;2.95;1.30;;;12.50;99.90;;;;;;5074336;28;20621;-73
2022/07/28 05:31:09;;;;;;;1.92;1.30;;;12.60;99.90;;;;;;5071115;28;20044;-73
2022/07/28 05:33:35;;;;;;;1.70;1.60;;;12.70;99.90;;;;;;5069633;28;20052;-72
2022/07/28 05:36:01;;;;;;;2.28;1.25;;;12.70;99.90;;;;;;5070573;28;20135;-73
2022/07/28 05:38:27;;;;;;;1.67;1.58;;;12.80;99.90;;;;;;5074864;28;20043;-73
2022/07/28 05:40:53;;;;;;;2.97;1.50;;;12.80;99.90;;;;;;5074580;28;20102;-72
2022/07/28 05:43:19;;;;;;;2.95;1.55;;;12.80;99.90;;;;;;5072917;28;21131;-73
2022/07/28 05:45:46;;;;;;;1.75;1.50;;;12.90;99.90;;;;;;5075959;28;20151;-73
2022/07/28 05:48:11;;;;;;;3.25;1.55;;;12.90;99.90;;;;;;5074983;28;20203;-74
2022/07/28 05:50:37;;;;;;;2.53;1.50;;;13.00;99.90;;;;;;5071970;28;20063;-74
2022/07/28 05:53:03;;;;;;;1.13;0.90;;;13.10;99.90;;;;;;5074718;28;20048;-74
2022/07/28 05:55:29;;;;;;;3.10;1.52;;;13.10;99.90;;;;;;5072486;28;20458;-73
2022/07/28 05:57:57;;;;;;;3.33;1.92;;;13.20;99.90;;;;;;5071279;28;20048;-73
2022/07/28 06:00:23;;;;;;;1.88;1.40;;;13.30;99.90;;;;;;5075104;28;20527;-73
2022/07/28 06:02:49;;;;;;;2.58;1.15;;;13.40;99.90;;;;;;5072216;28;20127;-72
2022/07/28 06:05:17;;;;;;;1.20;1.10;;;13.40;99.90;;;;;;5075435;28;20866;-73
2022/07/28 06:07:44;;;;;;;1.65;1.33;;;13.50;99.90;;;;;;5076856;28;20167;-75
2022/07/28 06:10:16;;;;;;;2.28;1.45;;;13.70;99.90;;;;;;5071628;28;20048;-74
2022/07/28 06:12:47;;;;;;;5.63;1.73;;;13.80;99.90;;;;;;5074198;28;20044;-73
2022/07/28 06:15:15;;;;;;;2.05;1.45;;;13.90;99.90;;;;;;5070992;28;20056;-73
2022/07/28 06:17:41;;;;;;;3.05;2.08;;;14.40;99.90;;;;;;5072458;28;20936;-74
2022/07/28 06:20:08;;;;;;;1.58;1.23;;;14.10;99.90;;;;;;5071082;28;20048;-72
2022/07/28 06:22:46;;;;;;;2.13;1.70;;;15.30;99.90;;;;;;5073448;28;20047;-74
2022/07/28 06:25:20;;;;;;;4.18;1.73;;;14.40;99.90;;;;;;5074650;28;20160;-72
2022/07/28 06:27:47;;;;;;;1.30;1.20;;;14.50;99.90;;;;;;5075811;28;20047;-74
2022/07/28 06:30:14;;;;;;;3.40;2.10;;;14.70;99.90;;;;;;5074718;28;20055;-75
2022/07/28 06:32:40;;;;;;;2.30;1.27;;;14.70;99.90;;;;;;5076806;28;20048;-73
2022/07/28 06:35:06;;;;;;;3.35;1.77;;;14.90;99.90;;;;;;5076906;28;20442;-73
2022/07/28 06:37:32;;;;;;;2.17;1.70;;;14.90;99.90;;;;;;5076445;28;20043;-74
2022/07/28 06:39:58;;;;;;;5.70;1.92;;;15.00;99.90;;;;;;5075772;28;20392;-74
2022/07/28 06:42:24;;;;;;;2.90;1.65;;;15.00;99.90;;;;;;5074678;28;20071;-74
2022/07/28 06:44:50;;;;;;;3.53;1.48;;;15.10;99.90;;;;;;5075235;28;20666;-75
2022/07/28 06:47:17;;;;;;;4.07;1.30;;;15.00;99.90;;;;;;5074997;28;20258;-75
2022/07/28 06:49:43;;;;;;;5.82;1.70;;;15.00;99.90;;;;;;5065752;28;20039;-73
2022/07/28 06:52:08;;;;;;;5.65;1.85;;;15.10;99.90;;;;;;5074947;28;20590;-76
2022/07/28 06:54:34;;;;;;;3.53;1.35;;;15.10;99.90;;;;;;5073349;28;20048;-75
2022/07/28 06:57:00;;;;;;;2.97;1.35;;;15.10;99.90;;;;;;5074764;28;20083;-73
2022/07/28 06:59:25;;;;;;;2.58;1.20;;;15.20;99.90;;;;;;5076269;28;20118;-74
2022/07/28 07:01:51;;;;;;;2.00;1.23;;;15.20;99.90;;;;;;5077088;28;20563;-75
2022/07/28 07:04:17;;;;;;;1.95;1.27;;;15.30;99.90;;;;;;4721276;28;10000681;-75
2022/07/28 07:06:43;;;;;;;3.58;1.33;;;15.30;99.90;;;;;;5072678;28;20055;-76
2022/07/28 07:09:08;;;;;;;1.73;1.20;;;15.30;99.90;;;;;;5070135;28;20040;-76
2022/07/28 07:11:35;;;;;;;1.65;1.17;;;15.40;99.90;;;;;;5071689;28;20044;-74
2022/07/28 07:14:01;;;;;;;1.50;1.17;;;15.40;99.90;;;;;;5070081;28;20044;-76
2022/07/28 07:16:27;;;;;;;2.92;1.30;;;15.40;99.90;;;;;;5071653;28;20051;-77
2022/07/28 07:18:52;;;;;;;1.75;1.63;;;15.40;99.90;;;;;;5073297;28;20113;-76
2022/07/28 07:21:19;;;;;;;2.28;1.40;;;15.50;99.90;;;;;;5072046;28;20055;-76
2022/07/28 07:23:44;;;;;;;7.28;2.03;;;15.60;99.90;;;;;;5068232;28;20040;-76
2022/07/28 07:26:10;;;;;;;6.50;2.38;;;15.60;99.90;;;;;;5070980;28;20052;-77
2022/07/28 07:28:36;;;;;;;3.88;2.00;;;15.60;99.90;;;;;;5073361;28;20059;-77
2022/07/28 07:31:02;;;;;;;3.97;1.65;;;15.60;99.90;;;;;;5068696;28;20083;-77
2022/07/28 07:33:28;;;;;;;2.25;1.52;;;15.70;99.90;;;;;;5068366;28;20939;-76
2022/07/28 07:35:53;;;;;;;1.73;1.48;;;15.80;99.90;;;;;;5069195;28;20047;-78
2022/07/28 07:38:19;;;;;;;2.13;1.67;;;15.90;99.90;;;;;;5070424;28;20071;-76
2022/07/28 07:40:45;;;;;;;8.10;3.25;;;15.80;99.90;;;;;;5070354;28;20043;-78
2022/07/28 07:43:11;;;;;;;4.78;2.13;;;15.80;99.90;;;;;;5070931;28;20051;-78
2022/07/28 07:45:36;;;;;;;4.65;2.25;;;15.70;99.90;;;;;;5069242;28;20131;-76
2022/07/28 07:48:02;;;;;;;2.35;2.10;;;15.50;99.90;;;;;;5080937;28;20682;-81
2022/07/28 07:50:28;;;;;;;4.45;1.90;;;15.40;99.90;;;;;;5068853;28;20457;-78
2022/07/28 07:52:55;;;;;;;4.47;2.17;;;15.30;99.90;;;;;;5069460;28;20558;-75
2022/07/28 07:55:20;;;;;;;3.40;2.22;;;15.20;99.90;;;;;;5063508;28;20097;-75
2022/07/28 07:57:46;;;;;;;2.97;1.95;;;15.20;99.90;;;;;;5069267;28;20048;-78
2022/07/28 08:00:13;;;;;;;4.65;2.13;;;15.30;99.90;;;;;;5069297;28;20076;-78
2022/07/28 08:02:41;;;;;;;3.63;2.30;;;15.30;99.90;;;;;;5066121;28;20054;-77
2022/07/28 08:05:08;;;;;;;5.90;2.50;;;15.30;99.90;;;;;;5067515;28;20047;-78
2022/07/28 08:07:34;;;;;;;3.70;2.42;;;15.40;99.90;;;;;;5080392;28;20066;-76
2022/07/28 08:10:00;;;;;;;3.38;2.58;;;15.40;99.90;;;;;;5071216;28;20671;-77
2022/07/28 08:12:26;;;;;;;3.85;2.00;;;15.50;99.90;;;;;;5071586;28;20873;-76
2022/07/28 08:14:53;;;;;;;5.68;3.00;;;15.70;99.90;;;;;;5071910;28;20047;-78
2022/07/28 08:17:19;;;;;;;3.95;2.30;;;15.80;99.90;;;;;;5073234;28;20053;-77
2022/07/28 08:19:44;;;;;;;6.15;1.88;;;16.00;99.90;;;;;;5072153;28;20094;-75
2022/07/28 08:22:10;;;;;;;2.50;1.80;;;16.10;99.90;;;;;;5069363;28;20043;-79
2022/07/28 08:24:36;;;;;;;4.28;1.98;;;16.20;99.90;;;;;;5071348;28;20130;-75
2022/07/28 08:27:02;;;;;;;2.17;1.42;;;16.50;99.90;;;;;;5071958;28;20059;-77
2022/07/28 08:29:28;;;;;;;2.35;1.77;;;16.50;99.90;;;;;;5070240;28;20086;-78
2022/07/28 08:31:54;;;;;;;2.72;1.75;;;16.70;99.90;;;;;;5072241;28;20338;-75
2022/07/28 08:34:19;;;;;;;2.92;1.85;;;16.80;99.90;;;;;;5068761;28;20159;-77
2022/07/28 08:36:45;;;;;;;4.63;1.30;;;16.90;99.90;;;;;;5071570;28;20841;-77
2022/07/28 08:39:11;;;;;;;1.40;1.30;;;17.00;99.90;;;;;;5071920;28;20052;-76
2022/07/28 08:41:55;;;;;;;3.38;1.58;;;17.10;99.90;;;;;;5071789;28;20044;-74
2022/07/28 08:44:27;;;;;;;2.88;1.38;;;17.20;99.90;;;;;;5068239;28;20874;-76
2022/07/28 08:46:53;;;;;;;3.78;1.50;;;17.40;99.90;;;;;;5068830;28;20853;-78
2022/07/28 08:49:19;;;;;;;6.13;1.52;;;17.60;99.90;;;;;;5069672;28;21231;-76
2022/07/28 08:51:48;;;;;;;4.07;1.50;;;17.60;99.90;;;;;;5072242;28;20044;-78
2022/07/28 08:54:18;;;;;;;1.67;1.10;;;17.70;99.90;;;;;;5076666;28;20055;-77
2022/07/28 08:56:46;;;;;;;4.82;1.85;;;17.80;99.90;;;;;;5072208;28;20382;-77
2022/07/28 08:59:12;;;;;;;2.70;1.45;;;17.90;99.90;;;;;;5072287;28;20125;-79
2022/07/28 09:01:38;;;;;;;3.70;1.25;;;18.00;99.90;;;;;;5084522;28;20082;-76
2022/07/28 09:04:06;;;;;;;5.18;1.20;;;18.30;99.90;;;;;;5069398;28;20997;-74
2022/07/28 09:06:32;;;;;;;1.83;1.15;;;18.50;99.90;;;;;;5073027;28;20914;-76
2022/07/28 09:08:58;;;;;;;3.67;1.42;;;18.60;99.90;;;;;;5071586;28;20134;-78
2022/07/28 09:11:26;;;;;;;1.42;1.08;;;18.80;99.90;;;;;;5071185;28;20492;-76
2022/07/28 09:13:52;;;;;;;1.77;1.15;;;18.70;99.80;;;;;;5074783;28;20052;-76
2022/07/28 09:16:18;;;;;;;2.60;1.10;;;18.90;99.90;;;;;;5074635;28;20503;-76
2022/07/28 09:18:44;;;;;;;2.35;0.98;;;19.10;99.90;;;;;;5077411;28;20035;-75
2022/07/28 09:21:14;;;;;;;1.90;0.80;;;19.30;99.40;;;;;;5075526;28;20047;-76
2022/07/28 09:23:47;;;;;;;2.85;0.98;;;19.10;97.20;;;;;;5074125;28;20047;-78
2022/07/28 09:26:14;;;;;;;1.48;1.17;;;19.10;97.50;;;;;;5078029;28;20494;-77
2022/07/28 09:28:54;;;;;;;1.75;1.17;;;19.20;95.70;;;;;;5084215;28;20048;-78
2022/07/28 09:31:21;;;;;;;1.30;0.85;;;19.40;97.50;;;;;;5076369;28;20055;-79
2022/07/28 09:33:59;;;;;;;0.73;0.70;;;19.50;97.30;;;;;;5080910;28;20772;-81
2022/07/28 09:36:27;;;;;;;2.30;0.82;;;19.60;94.70;;;;;;5081668;28;20047;-77
2022/07/28 09:38:53;;;;;;;1.58;0.80;;;19.90;96.80;;;;;;5075561;28;20047;-78
2022/07/28 09:41:22;;;;;;;1.02;0.90;;;19.80;96.20;;;;;;5077976;28;20044;-76
2022/07/28 09:43:50;;;;;;;2.17;0.90;;;20.20;96.00;;;;;;5075717;28;20086;-75
2022/07/28 09:46:21;;;;;;;1.80;0.70;;;20.40;95.90;;;;;;5075402;28;20192;-76
2022/07/28 09:48:57;;;;;;;1.83;1.00;;;20.70;94.80;;;;;;5072140;28;20039;-77
2022/07/28 09:51:26;;;;;;;1.77;1.10;;;21.40;92.80;;;;;;5071409;28;20745;-75
2022/07/28 09:53:52;;;;;;;2.65;1.27;;;21.40;92.60;;;;;;5074443;28;20040;-76
2022/07/28 09:56:18;;;;;;;2.17;0.77;;;21.80;93.40;;;;;;5073616;28;20089;-76
2022/07/28 09:58:56;;;;;;;1.38;1.08;;;21.50;92.80;;;;;;5076759;28;20059;-73
2022/07/28 10:01:22;;;;;;;2.00;0.80;;;20.90;91.50;;;;;;5077366;28;20747;-76
2022/07/28 10:03:54;;;;;;;3.08;1.50;;;20.70;93.30;;;;;;5078236;28;20044;-76
2022/07/28 10:06:32;;;;;;;2.95;1.17;;;20.90;93.50;;;;;;5079322;28;20052;-77
2022/07/28 10:09:00;;;;;;;2.42;1.15;;;21.00;91.60;;;;;;5076829;28;20109;-74
2022/07/28 10:11:27;;;;;;;11.90;1.77;;;20.90;93.60;;;;;;5077561;28;20357;-75
2022/07/28 10:13:54;;;;;;;1.00;0.90;;;21.00;93.20;;;;;;5079154;28;20048;-77
2022/07/28 10:16:22;;;;;;;2.30;2.10;;;20.70;91.50;;;;;;5073170;28;20594;-77
2022/07/28 10:18:48;;;;;;;1.67;1.55;;;20.90;93.40;;;;;;5078371;28;20040;-76
2022/07/28 10:21:16;;;;;;;2.72;1.50;;;20.60;91.90;;;;;;5076894;28;20484;-76
2022/07/28 10:23:54;;;;;;;1.50;1.33;;;20.50;92.40;;;;;;5079052;28;20182;-76
2022/07/28 10:26:24;;;;;;;2.08;1.60;;;20.40;92.00;;;;;;5074896;28;20056;-76
2022/07/28 10:28:51;;;;;;;2.55;1.17;;;20.80;93.10;;;;;;5078842;28;20036;-77
2022/07/28 10:31:39;;;;;;;3.70;1.70;;;21.20;92.70;;;;;;5077376;28;20230;-75
2022/07/28 10:34:08;;;;;;;5.22;2.13;;;21.60;91.80;;;;;;5077000;28;20750;-76
2022/07/28 10:36:35;;;;;;;2.92;1.60;;;21.50;91.90;;;;;;5078839;28;20051;-76
2022/07/28 10:39:14;;;;;;;1.33;1.23;;;21.30;91.70;;;;;;5077867;28;20036;-75
2022/07/28 10:41:42;;;;;;;2.53;1.30;;;21.10;91.40;;;;;;5069543;28;20792;-76
2022/07/28 10:44:12;;;;;;;2.80;1.17;;;20.80;91.70;;;;;;5077749;28;20046;-76
2022/07/28 10:46:40;;;;;;;3.50;1.60;;;20.70;91.80;;;;;;5079798;28;20132;-76
2022/07/28 10:49:07;;;;;;;2.35;1.13;;;20.70;92.30;;;;;;5078352;28;20048;-77
2022/07/28 10:51:33;;;;;;;2.22;1.23;;;20.60;92.10;;;;;;5077026;28;20072;-74
2022/07/28 10:54:07;;;;;;;1.88;0.95;;;20.60;91.90;;;;;;5077182;28;20198;-76
2022/07/28 10:56:50;;;;;;;2.67;1.50;;;20.60;91.90;;;;;;5077152;28;20071;-75
2022/07/28 10:59:53;;;;;;;2.75;1.23;;;20.60;91.70;;;;;;5076298;28;20135;-75
2022/07/28 11:02:42;;;;;;;1.90;0.95;;;20.80;91.60;;;;;;5071378;28;20051;-75
2022/07/28 11:05:29;;;;;;;1.17;1.08;;;20.80;91.00;;;;;;5067060;28;20457;-76
2022/07/28 11:07:59;;;;;;;2.05;1.10;;;20.90;91.40;;;;;;5075830;28;20093;-75
2022/07/28 11:10:26;;;;;;;3.15;1.08;;;21.10;91.70;;;;;;5076311;28;20079;-76
2022/07/28 11:12:55;;;;;;;1.48;1.10;;;21.20;91.30;;;;;;5076005;28;20515;-78
2022/07/28 11:15:29;;;;;;;2.55;1.20;;;21.40;91.40;;;;;;5076143;28;20133;-76
2022/07/28 11:18:04;;;;;;;2.15;1.35;;;21.70;91.10;;;;;;5074007;28;20697;-75
2022/07/28 11:21:03;;;;;;;2.65;1.10;;;22.00;90.90;;;;;;5076769;28;20044;-78
2022/07/28 11:23:40;;;;;;;5.35;1.20;;;22.30;89.70;;;;;;5074874;28;20865;-75
2022/07/28 11:26:19;;;;;;;1.75;1.10;;;22.50;90.30;;;;;;5076206;28;20500;-77
2022/07/28 11:28:59;;;;;;;1.38;1.10;;;22.20;87.60;;;;;;5068443;28;20121;-76
2022/07/28 11:31:45;;;;;;;4.40;1.17;;;22.20;88.40;;;;;;5077244;28;20556;-78
2022/07/28 11:34:24;;;;;;;1.35;0.90;;;22.00;86.00;;;;;;5073914;28;20185;-77
2022/07/28 11:37:01;;;;;;;2.50;1.13;;;22.00;89.10;;;;;;5076693;28;20080;-75
2022/07/28 11:39:35;;;;;;;2.58;1.77;;;21.90;88.60;;;;;;5077380;28;20036;-75
2022/07/28 11:42:27;;;;;;;1.75;1.10;;;22.00;87.90;;;;;;5075159;28;20052;-74
2022/07/28 11:44:54;;;;;;;2.42;1.00;;;22.00;87.60;;;;;;5072259;28;20087;-76
2022/07/28 11:47:22;;;;;;;1.85;0.80;;;22.10;87.70;;;;;;5076316;28;20127;-75
2022/07/28 11:50:11;;;;;;;1.48;1.02;;;22.10;87.40;;;;;;5075804;28;20044;-76
2022/07/28 11:52:37;;;;;;;1.58;1.08;;;21.90;86.80;;;;;;5071579;28;20071;-77
2022/07/28 11:55:03;;;;;;;1.63;1.15;;;21.60;87.40;;;;;;5078239;28;20051;-77
2022/07/28 11:57:37;;;;;;;3.55;1.00;;;21.00;88.50;;;;;;5075543;28;20048;-73
2022/07/28 12:00:05;;;;;;;5.18;1.10;;;20.80;89.60;;;;;;5067496;28;20052;-76
2022/07/28 12:02:32;;;;;;;1.60;1.02;;;20.60;89.70;;;;;;5073105;28;20046;-76
2022/07/28 12:05:07;;;;;;;1.60;1.10;;;20.50;90.30;;;;;;5075854;28;20044;-75
2022/07/28 12:07:35;;;;;;;1.38;0.90;;;20.40;90.40;;;;;;5073726;28;20574;-75
2022/07/28 12:10:21;;;;;;;3.75;1.08;;;20.40;90.90;;;;;;5074541;28;20093;-74
2022/07/28 12:12:51;;;;;;;1.88;1.10;;;20.00;90.80;;;;;;5063369;28;20078;-73
2022/07/28 12:15:18;;;;;;;3.40;1.10;;;20.00;91.90;;;;;;5071930;28;20094;-73
2022/07/28 12:17:44;;;;;;;3.25;1.35;;;20.00;91.60;;;;;;5071206;28;20992;-74
2022/07/28 12:20:12;;;;;;;1.33;1.20;;;19.50;90.70;;;;;;5072596;28;20054;-72
2022/07/28 12:22:38;;;;;;;1.75;1.05;;;19.90;91.10;;;;;;5073866;28;20062;-72
2022/07/28 12:25:03;;;;;;;4.68;1.10;;;19.80;91.10;;;;;;5086043;28;20503;-75
2022/07/28 12:27:29;;;;;;;1.17;1.10;;;19.90;91.90;;;;;;5070076;28;20195;-72
2022/07/28 12:29:59;;;;;;;4.47;1.33;;;20.10;91.90;;;;;;5072541;28;20143;-72
2022/07/28 12:32:34;;;;;;;3.30;1.13;;;20.30;91.30;;;;;;5073930;28;20051;-72
2022/07/28 12:35:00;;;;;;;0.93;0.90;;;20.40;91.20;;;;;;5071228;28;20048;-74
2022/07/28 12:37:27;;;;;;;1.77;1.30;;;20.50;91.00;;;;;;5071679;28;20506;-73
2022/07/28 12:39:53;;;;;;;1.75;0.95;;;20.60;91.10;;;;;;5070296;28;20097;-72
2022/07/28 12:42:20;;;;;;;1.88;1.00;;;20.60;90.50;;;;;;5070887;28;20071;-73
2022/07/28 12:44:47;;;;;;;2.67;1.00;;;20.70;90.60;;;;;;5072943;28;20035;-74
2022/07/28 12:47:16;;;;;;;2.55;1.35;;;20.60;90.30;;;;;;5076019;28;20584;-76
2022/07/28 12:49:43;;;;;;;0.80;0.80;;;20.60;90.50;;;;;;5075726;28;20043;-76
2022/07/28 12:52:18;;;;;;;5.88;1.88;;;20.70;90.50;;;;;;5073342;28;20055;-74
2022/07/28 12:54:44;;;;;;;2.00;0.80;;;20.80;90.00;;;;;;5073828;28;20452;-74
2022/07/28 12:57:10;;;;;;;1.08;0.98;;;20.90;90.10;;;;;;5076207;28;20059;-76
2022/07/28 12:59:37;;;;;;;1.80;1.00;;;20.90;89.60;;;;;;5075971;28;20225;-74
2022/07/28 13:02:04;;;;;;;2.15;1.25;;;20.90;89.90;;;;;;5070147;28;20048;-74